Bend, OR

11:16 AM PDT on April 30, 2017 (GMT -0700)
KG7AV | | Change Station

Elev 3461 ft 44.11 °N, 121.28 °W | Updated 1 minute ago

Partly Cloudy
Partly Cloudy
57.4 °F
Feels Like 57.4 °F
N
6.3
Wind Variable Wind from ENE

Today
High -- | Low -- °F
--% Chance of Precip.
Yesterday
High -- | Low -- °F
Precip. -- in
Pressure 30.20 in
Visibility 10.0 miles
Clouds Scattered Clouds 4300 ft
Scattered Clouds 4900 ft
Mostly Cloudy 5500 ft
Dew Point 37 °F
Humidity 47%
Rainfall 0.00 in
Snow Depth Not available.
5:57 AM 8:07 PM
Waxing Crescent, 25% visible
METAR KBDN 301755Z AUTO 17006KT 10SM SCT043 SCT049 BKN055 15/03 A3020 RMK AO2
Pressure 30.20 in
Visibility 10.0 miles
Clouds Scattered Clouds 4300 ft
Scattered Clouds 4900 ft
Mostly Cloudy 5500 ft
Dew Point 37 °F
Humidity 47%
Rainfall 0.00 in
Snow Depth Not available.
5:57 AM 8:07 PM
Waxing Crescent, 25% visible
METAR KBDN 301755Z AUTO 17006KT 10SM SCT043 SCT049 BKN055 15/03 A3020 RMK AO2

Get Severe Weather Alerts

Thanks for signing up!

Be on the lookout for a verification email in your inbox.

You'll start receiving the daily forecast at 8 AM.

×

10-Day Weather Forecast

Almanac

Astronomy

Apr. 30, 2017 Rise Set
Actual Time
Civil Twilight
Nautical Twilight
Astronomical Twilight
Moon
Length of Visible Light
Length of Day
Tomorrow will be .
, % of the Moon is Illuminated

Today's Extremes

State Highs State Lows

Community

WunderPhotos

WunderBlog® & News

Nearby

Air Quality

  Air Quality AQ Index Pollutant
Not available.

Snow Depth

Station Depth Elevation

Earthquake Activity

City Distance Mag. Time & Date
Minimum magnitude displayed is 2.5.

Coastal Water Temperatures

Place Temperature

Stations

Nearby Weather Stations

Station Location Temp. Windchill Dew Point Humidity Wind Precip. Elev Updated Type
                   

Watches & Warnings

There are currently no watches in effect.